Time;durP1;ratioP1;P1;durP2;ratioP2;P2;SDS_P1;SDS_P2;PMS_P1;PMS_P2;Temp;Humidity;BMP_temperature;BMP_pressure;BME280_temperature;BME280_humidity;BME280_pressure;Samples;Min_cycle;Max_cycle;Signal;HPM_P1;HPM_P2
2022/05/19 00:01:01;;;;;;;2.55;2.35;;;;;;;9.68;100.00;100941.96;1801199;79;21054;-84
2022/05/19 00:03:12;;;;;;;2.95;2.72;;;;;;;9.73;100.00;100943.33;1798362;79;20991;-86
2022/05/19 00:05:39;;;;;;;4.30;2.85;;;;;;;9.75;100.00;100949.72;1801667;78;20947;-84
2022/05/19 00:08:07;;;;;;;2.92;2.70;;;;;;;9.73;100.00;100950.28;1778747;79;21010;-89
2022/05/19 00:10:35;;;;;;;3.10;2.80;;;;;;;9.72;100.00;100948.61;1801051;78;20995;-86
2022/05/19 00:13:05;;;;;;;3.40;3.10;;;;;;;9.73;100.00;100951.13;1801457;78;21077;-84
2022/05/19 00:15:33;;;;;;;4.75;3.20;;;;;;;9.70;100.00;100951.32;1801198;79;21145;-87
2022/05/19 00:18:00;;;;;;;3.40;3.05;;;;;;;9.62;100.00;100954.89;1801378;78;21022;-88
2022/05/19 00:20:27;;;;;;;3.92;3.58;;;;;;;9.52;100.00;100951.22;1801847;79;21007;-89
2022/05/19 00:22:56;;;;;;;4.20;3.52;;;;;;;9.41;100.00;100950.62;1801241;79;21151;-86
2022/05/19 00:25:23;;;;;;;4.00;3.60;;;;;;;9.30;100.00;100952.63;1801131;79;21121;-87
2022/05/19 00:27:50;;;;;;;3.98;3.67;;;;;;;9.19;100.00;100948.56;1801289;78;21322;-88
2022/05/19 00:30:17;;;;;;;3.75;3.42;;;;;;;9.13;100.00;100954.53;1801357;78;21536;-89
2022/05/19 00:32:45;;;;;;;3.80;3.50;;;;;;;9.09;100.00;100953.05;1801158;79;21003;-89
2022/05/19 00:35:13;;;;;;;4.22;3.80;;;;;;;9.07;100.00;100958.83;1801210;79;21583;-89
2022/05/19 00:37:40;;;;;;;4.20;3.85;;;;;;;9.10;100.00;100964.28;1801631;79;21093;-90
2022/05/19 00:40:09;;;;;;;4.42;4.03;;;;;;;9.13;100.00;100961.51;1801132;79;21042;-91
2022/05/19 00:42:45;;;;;;;4.45;3.75;;;;;;;9.15;100.00;100964.38;1801453;79;21334;-88
2022/05/19 00:45:20;;;;;;;4.58;4.15;;;;;;;9.19;100.00;100962.86;1801239;79;21038;-87
2022/05/19 00:47:58;;;;;;;4.00;3.62;;;;;;;9.24;100.00;100956.92;1800260;79;21108;-86
2022/05/19 00:50:57;;;;;;;4.20;3.80;;;;;;;9.27;100.00;100960.60;1796385;79;21319;-87
2022/05/19 00:53:39;;;;;;;3.85;3.55;;;;;;;9.28;100.00;100959.23;1778188;79;21049;-87
2022/05/19 00:56:32;;;;;;;3.52;3.22;;;;;;;9.32;100.00;100958.56;1800817;79;21018;-87
2022/05/19 00:59:12;;;;;;;3.83;3.52;;;;;;;9.35;100.00;100962.24;1790744;79;21050;-89
2022/05/19 01:01:43;;;;;;;4.05;3.22;;;;;;;9.37;100.00;100960.87;1791008;79;21097;-90
2022/05/19 01:04:18;;;;;;;5.10;3.70;;;;;;;9.37;100.00;100966.88;1798510;79;21197;-89
2022/05/19 01:06:50;;;;;;;4.08;3.67;;;;;;;9.40;100.00;100964.55;1798269;79;21401;-90
2022/05/19 01:09:17;;;;;;;3.72;3.33;;;;;;;9.43;100.00;100970.86;1801147;79;21547;-90
2022/05/19 01:11:45;;;;;;;4.35;3.95;;;;;;;9.46;100.00;100971.94;1801104;79;21033;-89
2022/05/19 01:14:12;;;;;;;4.83;3.70;;;;;;;9.48;100.00;100970.08;1801391;79;21528;-89
2022/05/19 01:16:39;;;;;;;4.67;4.28;;;;;;;9.50;100.00;100966.92;1800887;79;21127;-88
2022/05/19 01:19:12;;;;;;;4.22;3.90;;;;;;;9.53;100.00;100971.09;1800977;79;21046;-89
2022/05/19 01:21:39;;;;;;;5.80;3.60;;;;;;;9.55;100.00;100971.83;1791705;79;21444;-89
2022/05/19 01:24:16;;;;;;;3.98;3.67;;;;;;;9.54;100.00;100975.36;1801550;79;20995;-89
2022/05/19 01:26:50;;;;;;;4.20;3.87;;;;;;;9.56;100.00;100974.80;1798982;79;21062;-90
2022/05/19 01:29:27;;;;;;;5.35;4.08;;;;;;;9.58;100.00;100975.52;1801145;79;21209;-88
2022/05/19 01:32:00;;;;;;;4.42;4.03;;;;;;;9.58;100.00;100977.66;1799206;79;21689;-89
2022/05/19 01:34:34;;;;;;;4.45;3.90;;;;;;;9.59;100.00;100978.03;1801168;79;21010;-88
2022/05/19 01:37:02;;;;;;;4.42;4.03;;;;;;;9.61;100.00;100977.92;1801303;79;22457;-89
2022/05/19 01:39:36;;;;;;;4.42;4.03;;;;;;;9.63;100.00;100982.56;1797861;79;21018;-90
2022/05/19 01:42:34;;;;;;;4.53;4.10;;;;;;;9.64;100.00;100979.03;1802273;79;21094;-90
2022/05/19 01:45:22;;;;;;;4.58;4.17;;;;;;;9.64;100.00;100981.63;1798154;79;21023;-92
2022/05/19 01:48:03;;;;;;;4.90;4.40;;;;;;;9.65;100.00;100983.75;1796441;79;21133;-89
2022/05/19 01:50:33;;;;;;;;;;;;;;;9.67;100.00;100981.41;1798905;79;21484;-90
2022/05/19 01:53:12;;;;;;;5.30;4.37;;;;;;;9.69;100.00;100989.95;1798240;79;20163;-91
2022/05/19 01:56:14;;;;;;;6.28;4.62;;;;;;;9.69;100.00;100987.36;1798834;79;21167;-89
2022/05/19 01:58:47;;;;;;;5.28;4.70;;;;;;;9.70;100.00;100998.12;1801095;79;21535;-88
2022/05/19 02:01:17;;;;;;;5.42;4.80;;;;;;;9.72;100.00;100992.81;1803346;79;21018;-90
2022/05/19 02:04:14;;;;;;;5.30;4.60;;;;;;;9.72;100.00;100994.97;1775300;79;40500;-89
2022/05/19 02:06:51;;;;;;;5.87;4.80;;;;;;;9.72;100.00;100990.22;1800653;79;21050;-88
2022/05/19 02:09:25;;;;;;;5.12;4.72;;;;;;;9.72;100.00;100994.97;1801044;79;20987;-88
2022/05/19 02:11:56;;;;;;;5.50;4.65;;;;;;;9.72;100.00;100998.02;1801166;79;21507;-87
2022/05/19 02:14:28;;;;;;;5.20;4.70;;;;;;;9.72;100.00;100999.32;1800972;79;21484;-87
2022/05/19 02:16:56;;;;;;;5.08;4.45;;;;;;;9.73;100.00;100999.69;1797873;79;21035;-86
2022/05/19 02:19:28;;;;;;;4.87;4.33;;;;;;;9.74;100.00;101002.18;1802068;79;21058;-90
2022/05/19 02:21:56;;;;;;;7.22;5.03;;;;;;;9.74;100.00;101001.36;1776197;79;21247;-89
2022/05/19 02:24:26;;;;;;;5.15;4.65;;;;;;;9.72;100.00;101004.07;1801263;79;21658;-89
2022/05/19 02:26:53;;;;;;;6.10;4.60;;;;;;;9.70;100.00;100996.83;1801095;79;21453;-89
2022/05/19 02:29:23;;;;;;;6.70;4.45;;;;;;;9.73;100.00;100994.04;1801366;79;21053;-91
2022/05/19 02:31:51;;;;;;;5.20;4.70;;;;;;;9.73;100.00;101000.55;1801545;79;21007;-89
2022/05/19 02:34:18;;;;;;;5.25;4.83;;;;;;;9.72;100.00;100996.27;1800479;79;21077;-90
2022/05/19 02:36:47;;;;;;;5.62;5.12;;;;;;;9.73;100.00;101008.34;1797424;79;21112;-85
2022/05/19 02:39:15;;;;;;;5.08;4.67;;;;;;;9.73;100.00;101012.24;1801036;79;21065;-86
2022/05/19 02:41:42;;;;;;;5.28;4.78;;;;;;;9.76;100.00;101013.80;1801418;79;21598;-86
2022/05/19 02:44:09;;;;;;;5.28;4.83;;;;;;;9.75;100.00;101016.85;1800966;79;21078;-85
2022/05/19 02:46:36;;;;;;;6.05;5.17;;;;;;;9.74;100.00;101017.78;1801505;79;21109;-87
2022/05/19 02:49:04;;;;;;;6.12;4.78;;;;;;;9.75;100.00;101025.95;1800554;79;21462;-87
2022/05/19 02:51:32;;;;;;;6.10;5.00;;;;;;;9.75;100.00;101014.73;1801437;79;21097;-86
2022/05/19 02:53:59;;;;;;;5.30;4.87;;;;;;;9.76;100.00;101025.51;1801161;79;21007;-87
2022/05/19 02:56:26;;;;;;;5.50;5.00;;;;;;;9.75;100.00;101027.73;1801626;79;21030;-87
2022/05/19 02:58:53;;;;;;;6.30;5.50;;;;;;;9.76;100.00;101031.53;1801612;79;21831;-87
2022/05/19 03:01:20;;;;;;;7.78;5.37;;;;;;;9.75;100.00;101028.56;1801562;79;21511;-87
2022/05/19 03:03:48;;;;;;;6.10;5.50;;;;;;;9.76;100.00;101032.01;1800411;79;21031;-87
2022/05/19 03:06:16;;;;;;;5.37;4.83;;;;;;;9.77;100.00;101033.20;1799902;79;21081;-87
2022/05/19 03:08:47;;;;;;;5.53;4.95;;;;;;;9.76;100.00;101044.53;1801293;78;21065;-88
2022/05/19 03:11:14;;;;;;;5.80;5.20;;;;;;;9.77;100.00;101039.70;1805706;79;21855;-88
2022/05/19 03:13:41;;;;;;;6.75;5.20;;;;;;;9.77;100.00;101043.60;1804468;78;20990;-90
2022/05/19 03:16:09;;;;;;;5.97;5.40;;;;;;;9.79;100.00;101046.95;1804412;79;21077;-89
2022/05/19 03:18:36;;;;;;;5.50;5.00;;;;;;;9.82;100.00;101044.61;1804510;78;21061;-89
2022/05/19 03:21:04;;;;;;;7.35;4.75;;;;;;;9.85;100.00;101048.77;1804419;78;21069;-90
2022/05/19 03:23:32;;;;;;;6.83;5.30;;;;;;;9.85;100.00;101053.97;1804180;78;21174;-87
2022/05/19 03:25:59;;;;;;;5.37;4.87;;;;;;;9.88;100.00;101049.88;1804382;78;21041;-89
2022/05/19 03:28:26;;;;;;;6.60;4.72;;;;;;;9.90;100.00;101048.84;1804811;78;21548;-87
2022/05/19 03:30:54;;;;;;;7.47;5.15;;;;;;;9.93;100.00;101051.22;1804406;78;21017;-90
2022/05/19 03:33:21;;;;;;;6.60;5.33;;;;;;;9.97;100.00;101053.19;1804266;78;21116;-88
2022/05/19 03:36:03;;;;;;;6.28;5.50;;;;;;;9.99;100.00;101055.20;1804182;78;21066;-87
2022/05/19 03:38:31;;;;;;;5.35;4.85;;;;;;;10.02;100.00;101052.86;1804084;78;21983;-85
2022/05/19 03:40:59;;;;;;;6.50;5.12;;;;;;;10.07;100.00;101059.43;1784356;79;21073;-88
2022/05/19 03:43:26;;;;;;;5.92;5.42;;;;;;;10.10;100.00;101054.03;1744631;80;21063;-87
2022/05/19 03:45:54;;;;;;;6.25;5.30;;;;;;;10.15;100.00;101052.44;1741533;82;21061;-88
2022/05/19 03:48:24;;;;;;;7.08;5.35;;;;;;;10.18;100.00;101053.52;1804522;78;21566;-86
2022/05/19 03:50:52;;;;;;;6.70;4.95;;;;;;;10.23;100.00;101056.66;1804491;78;21034;-87
2022/05/19 03:53:19;;;;;;;7.22;5.33;;;;;;;10.29;100.00;101059.78;1804545;78;21043;-88
2022/05/19 03:55:47;;;;;;;5.95;5.20;;;;;;;10.35;100.00;101060.66;1804450;79;20994;-89
2022/05/19 03:58:15;;;;;;;6.03;5.45;;;;;;;10.38;100.00;101058.72;1799456;78;20979;-89
2022/05/19 04:00:43;;;;;;;7.67;5.35;;;;;;;10.44;100.00;101062.69;1796457;78;21124;-89
2022/05/19 04:03:10;;;;;;;5.80;5.20;;;;;;;10.50;100.00;101062.75;1796409;79;21089;-88
2022/05/19 04:05:38;;;;;;;8.10;5.33;;;;;;;10.55;100.00;101059.34;1796394;78;21548;-87
2022/05/19 04:08:06;;;;;;;6.05;5.30;;;;;;;10.61;100.00;101055.50;1796452;78;20981;-87
2022/05/19 04:10:34;;;;;;;5.45;4.95;;;;;;;10.65;100.00;101052.58;1796398;78;21027;-86
2022/05/19 04:13:01;;;;;;;5.70;5.10;;;;;;;10.71;100.00;101059.97;1796700;78;21143;-85
2022/05/19 04:15:29;;;;;;;4.92;4.42;;;;;;;10.77;100.00;101055.30;1796298;78;20971;-89
2022/05/19 04:17:56;;;;;;;5.15;4.30;;;;;;;10.83;100.00;101057.47;1796481;78;21562;-90
2022/05/19 04:20:26;;;;;;;5.95;5.12;;;;;;;10.88;100.00;101063.19;1796207;78;21041;-89
2022/05/19 04:22:53;;;;;;;5.92;4.83;;;;;;;10.96;100.00;101063.48;1793080;78;21066;-88
2022/05/19 04:25:20;;;;;;;6.70;5.10;;;;;;;11.02;100.00;101063.05;1796144;78;21257;-88
2022/05/19 04:27:47;;;;;;;5.58;5.00;;;;;;;11.09;100.00;101071.77;1796130;79;21054;-87
2022/05/19 04:30:15;;;;;;;7.03;5.03;;;;;;;11.14;100.00;101065.75;1796306;78;21046;-88
2022/05/19 04:32:44;;;;;;;5.05;4.53;;;;;;;11.18;100.00;101064.13;1796057;78;20984;-88
2022/05/19 04:35:14;;;;;;;5.10;4.60;;;;;;;11.24;100.00;101069.38;1796438;78;21054;-89
2022/05/19 04:37:41;;;;;;;6.17;4.72;;;;;;;11.29;100.00;101068.58;1796389;78;21112;-88
2022/05/19 04:40:09;;;;;;;5.37;4.85;;;;;;;11.38;100.00;101070.98;1796728;78;21380;-89
2022/05/19 04:42:36;;;;;;;6.00;4.70;;;;;;;11.44;100.00;101070.57;1796102;78;21073;-90
2022/05/19 04:45:05;;;;;;;5.17;4.67;;;;;;;11.50;100.00;101071.88;1796515;78;21500;-89
2022/05/19 04:47:33;;;;;;;4.92;4.53;;;;;;;11.52;100.00;101073.46;1796028;79;21113;-88
2022/05/19 04:50:00;;;;;;;5.50;4.80;;;;;;;11.57;100.00;101077.50;1796606;78;21174;-88
2022/05/19 04:52:27;;;;;;;5.90;4.78;;;;;;;11.60;100.00;101070.28;1795988;78;21062;-87
2022/05/19 04:54:55;;;;;;;5.22;4.72;;;;;;;11.71;100.00;101076.51;1796402;78;21034;-89
2022/05/19 04:57:22;;;;;;;6.10;4.75;;;;;;;11.81;100.00;101083.55;1803393;78;20975;-89
2022/05/19 04:59:50;;;;;;;6.50;4.65;;;;;;;11.89;100.00;101079.09;1813804;77;20999;-89
2022/05/19 05:02:18;;;;;;;5.62;4.65;;;;;;;11.94;100.00;101081.33;1813858;78;21026;-89
2022/05/19 05:04:45;;;;;;;6.50;5.20;;;;;;;12.00;100.00;101067.88;1813957;77;21594;-86
2022/05/19 05:07:13;;;;;;;5.17;4.67;;;;;;;12.08;100.00;101077.74;1814171;77;21539;-87
2022/05/19 05:09:42;;;;;;;5.37;4.78;;;;;;;12.13;100.00;101081.68;1813901;78;20943;-89
2022/05/19 05:12:10;;;;;;;9.55;4.58;;;;;;;12.13;100.00;101084.78;1813891;77;20999;-88
2022/05/19 05:14:37;;;;;;;7.17;5.00;;;;;;;12.12;100.00;101087.02;1813719;78;21179;-87
2022/05/19 05:17:04;;;;;;;7.42;5.08;;;;;;;12.20;100.00;101085.98;1813993;77;20982;-88
2022/05/19 05:19:32;;;;;;;6.03;5.40;;;;;;;12.36;100.00;101089.56;1813887;77;20946;-87
2022/05/19 05:22:01;;;;;;;5.37;4.87;;;;;;;12.54;100.00;101086.52;1807321;78;20993;-88
2022/05/19 05:24:29;;;;;;;7.50;4.90;;;;;;;12.69;100.00;101084.04;1824603;78;21053;-88
2022/05/19 05:26:56;;;;;;;5.00;4.47;;;;;;;12.90;100.00;101083.31;1823890;78;21100;-87
2022/05/19 05:29:23;;;;;;;6.50;4.62;;;;;;;13.12;100.00;101077.25;1813534;77;21433;-89
2022/05/19 05:31:51;;;;;;;4.80;4.40;;;;;;;13.32;100.00;101082.70;1814133;77;21006;-87
2022/05/19 05:34:18;;;;;;;4.37;3.98;;;;;;;13.50;100.00;101078.63;1813619;78;20995;-87
2022/05/19 05:36:46;;;;;;;6.00;4.58;;;;;;;13.69;100.00;101081.08;1813713;77;20942;-87
2022/05/19 05:39:13;;;;;;;4.95;4.42;;;;;;;13.84;100.00;101077.22;1813665;77;21238;-86
2022/05/19 05:41:41;;;;;;;4.80;4.40;;;;;;;13.97;100.00;101077.04;1784184;79;20999;-86
2022/05/19 05:44:08;;;;;;;4.92;4.22;;;;;;;14.11;100.00;101079.84;1813631;77;21057;-87
2022/05/19 05:46:36;;;;;;;5.35;4.40;;;;;;;14.25;100.00;101077.84;1814140;77;21096;-87
2022/05/19 05:49:04;;;;;;;6.33;4.22;;;;;;;14.38;100.00;101081.09;1813974;78;21546;-87
2022/05/19 05:51:34;;;;;;;4.60;4.17;;;;;;;14.52;100.00;101081.25;1808337;79;21069;-87
2022/05/19 05:54:01;;;;;;;6.97;4.28;;;;;;;14.63;100.00;101077.25;1811892;79;21113;-86
2022/05/19 05:56:29;;;;;;;4.85;3.70;;;;;;;14.73;100.00;101081.74;1803816;79;21046;-88
2022/05/19 05:58:56;;;;;;;5.10;3.95;;;;;;;14.79;100.00;101082.02;1794000;79;21089;-85
2022/05/19 06:01:23;;;;;;;4.70;4.22;;;;;;;14.88;100.00;101085.66;1788768;78;21093;-87
2022/05/19 06:03:50;;;;;;;4.45;4.05;;;;;;;14.98;100.00;101077.83;1792284;79;21119;-87
2022/05/19 06:06:17;;;;;;;4.47;4.08;;;;;;;15.10;100.00;101082.48;1784454;79;21041;-85
2022/05/19 06:08:45;;;;;;;4.55;4.05;;;;;;;15.17;100.00;101078.86;1765580;79;21532;-86
2022/05/19 06:11:14;;;;;;;5.12;3.95;;;;;;;15.23;100.00;101080.94;1786648;79;21500;-87
2022/05/19 06:13:43;;;;;;;6.28;3.75;;;;;;;15.30;100.00;101080.25;1793566;79;20975;-86
2022/05/19 06:16:11;;;;;;;4.33;3.83;;;;;;;15.40;100.00;101088.16;1793435;79;21149;-86
2022/05/19 06:18:39;;;;;;;4.15;3.75;;;;;;;15.49;100.00;101082.56;1793396;79;21030;-85
2022/05/19 06:21:07;;;;;;;4.15;3.75;;;;;;;15.55;100.00;101085.95;1790674;79;21028;-80
2022/05/19 06:23:34;;;;;;;5.90;3.40;;;;;;;15.64;100.00;101076.91;1790824;79;21046;-80
2022/05/19 06:26:04;;;;;;;4.95;3.45;;;;;;;15.81;100.00;101079.36;1790964;79;21013;-79
2022/05/19 06:28:31;;;;;;;3.95;3.42;;;;;;;15.97;100.00;101086.69;1790939;80;21721;-87
2022/05/19 06:31:01;;;;;;;12.45;5.65;;;;;;;16.05;100.00;101083.73;1790986;80;21047;-83
2022/05/19 06:33:29;;;;;;;5.97;4.05;;;;;;;16.07;100.00;101084.39;1790897;79;21031;-82
2022/05/19 06:35:56;;;;;;;4.08;3.72;;;;;;;16.11;100.00;101092.83;1791155;79;20988;-82
2022/05/19 06:38:24;;;;;;;6.10;3.35;;;;;;;16.19;100.00;101085.56;1791984;79;20939;-82
2022/05/19 06:42:00;;;;;;;3.70;3.37;;;;;;;16.29;100.00;101086.39;1785805;79;21167;-81
2022/05/19 06:43:24;;;;;;;3.58;3.17;;;;;;;16.43;100.00;101089.53;1787581;79;21085;-90
2022/05/19 06:45:50;;;;;;;2.90;2.70;;;;;;;16.53;100.00;101095.59;1768797;79;21074;-88
2022/05/19 06:48:17;;;;;;;29.65;24.67;;;;;;;16.56;100.00;101103.18;1798251;78;21054;-87
2022/05/19 06:50:46;;;;;;;3.62;3.10;;;;;;;16.54;100.00;101095.45;1776682;80;21504;-87
2022/05/19 06:53:14;;;;;;;4.12;2.77;;;;;;;16.53;100.00;101094.28;1741530;80;21744;-88
2022/05/19 06:55:41;;;;;;;3.55;2.70;;;;;;;16.56;100.00;101097.45;1760813;79;21020;-88
2022/05/19 06:58:09;;;;;;;4.03;2.67;;;;;;;16.60;100.00;101099.31;1794631;79;21042;-87
2022/05/19 07:00:36;;;;;;;3.65;2.60;;;;;;;16.59;96.95;101100.75;1811915;79;21029;-85
2022/05/19 07:03:05;;;;;;;4.75;2.90;;;;;;;16.59;100.00;101095.02;1811966;79;21030;-82
2022/05/19 07:05:38;;;;;;;3.70;2.80;;;;;;;16.65;100.00;101098.38;1811740;79;21827;-88
2022/05/19 07:08:06;;;;;;;2.95;2.47;;;;;;;16.72;100.00;101095.52;1812113;79;21100;-88
2022/05/19 07:10:34;;;;;;;2.75;2.55;;;;;;;16.82;100.00;101089.40;1811913;79;20959;-87
2022/05/19 07:13:01;;;;;;;2.45;2.00;;;;;;;16.99;92.71;101094.39;1812229;79;21798;-85
2022/05/19 07:15:28;;;;;;;2.27;1.65;;;;;;;17.16;75.83;101094.13;1811834;79;21030;-85
2022/05/19 07:17:56;;;;;;;2.20;2.00;;;;;;;17.30;71.83;101096.25;1812099;79;21147;-86
2022/05/19 07:23:19;;;;;;;3.35;1.90;;;;;;;17.57;68.27;101096.34;1798548;79;21579;-83
2022/05/19 07:25:47;;;;;;;4.35;1.67;;;;;;;17.67;64.83;101102.38;1731507;81;21013;-85
2022/05/19 07:28:15;;;;;;;1.87;1.77;;;;;;;17.69;69.90;101095.64;1728004;81;21011;-95
2022/05/19 07:30:46;;;;;;;2.72;1.92;;;;;;;17.53;62.23;101104.22;1728224;81;21792;-84
2022/05/19 07:33:15;;;;;;;2.20;2.00;;;;;;;17.19;66.10;101104.33;1709378;80;21086;-89
2022/05/19 07:35:50;;;;;;;2.50;1.70;;;;;;;16.72;65.15;101112.61;1732072;82;20986;-87
2022/05/19 07:38:15;;;;;;;4.53;1.90;;;;;;;16.32;67.02;101112.36;1746758;81;21094;-88
2022/05/19 07:40:44;;;;;;;3.08;1.72;;;;;;;16.06;71.59;101119.51;1734169;81;21015;-89
2022/05/19 07:45:59;;;;;;;3.35;1.70;;;;;;;15.82;81.65;101112.52;1737834;82;22030;-87
2022/05/19 07:48:26;;;;;;;2.25;1.50;;;;;;;15.88;79.30;101110.69;1737896;82;21477;-88
2022/05/19 07:50:53;;;;;;;2.67;1.60;;;;;;;16.24;73.02;101116.18;1725452;82;21093;-87
2022/05/19 07:53:22;;;;;;;1.90;1.50;;;;;;;16.50;66.86;101103.76;1739270;80;21033;-89
2022/05/19 07:55:49;;;;;;;1.87;1.40;;;;;;;16.65;64.66;101100.20;1747880;79;21117;-87
2022/05/19 07:58:17;;;;;;;1.37;1.27;;;;;;;16.66;62.73;101100.05;1728506;82;21627;-88
2022/05/19 08:00:45;;;;;;;1.60;1.35;;;;;;;16.64;58.75;101097.22;1736123;82;21035;-84
2022/05/19 08:03:15;;;;;;;2.87;1.80;;;;;;;16.71;61.08;101099.12;1740565;82;21061;-87
2022/05/19 08:05:42;;;;;;;2.50;1.50;;;;;;;16.76;62.06;101093.93;1740723;82;21518;-87
2022/05/19 08:08:11;;;;;;;1.35;1.25;;;;;;;16.68;59.39;101095.95;1740197;82;21140;-89
2022/05/19 08:10:40;;;;;;;2.72;1.40;;;;;;;16.53;58.43;101099.05;1714393;82;21026;-87
2022/05/19 08:15:56;;;;;;;1.57;1.42;;;;;;;16.24;56.39;101104.36;1724032;81;21136;-86
2022/05/19 08:18:25;;;;;;;3.92;1.40;;;;;;;16.13;58.24;101096.14;1738335;79;21495;-87
2022/05/19 08:20:58;;;;;;;1.72;1.40;;;;;;;16.13;58.97;101099.27;1719913;82;21520;-87
2022/05/19 08:23:33;;;;;;;1.40;1.30;;;;;;;16.16;56.51;101103.77;1765894;79;21976;-86
2022/05/19 08:26:02;;;;;;;1.30;1.20;;;;;;;16.21;57.76;101104.66;1796421;79;21006;-87
2022/05/19 08:28:30;;;;;;;3.40;1.20;;;;;;;16.17;56.84;101108.05;1773981;79;20975;-87
2022/05/19 08:31:13;;;;;;;2.72;1.40;;;;;;;16.12;53.91;101107.62;1796449;78;21262;-87
2022/05/19 08:33:44;;;;;;;3.47;1.40;;;;;;;16.08;48.83;101104.44;1792876;79;21246;-84
2022/05/19 08:36:12;;;;;;;2.87;1.40;;;;;;;16.06;48.84;101105.06;1766933;80;21054;-82
2022/05/19 08:38:41;;;;;;;1.42;1.32;;;;;;;16.05;48.26;101109.99;1803987;79;21053;-82
2022/05/19 08:41:28;;;;;;;2.65;1.20;;;;;;;16.08;49.73;101107.07;1812282;79;21001;-83
2022/05/19 08:44:05;;;;;;;3.42;1.62;;;;;;;16.13;49.22;101105.34;1798815;79;21011;-82
2022/05/19 08:46:40;;;;;;;4.53;1.35;;;;;;;16.23;49.22;101096.12;1791799;79;21168;-86
2022/05/19 08:49:19;;;;;;;2.95;1.77;;;;;;;16.36;49.74;101096.67;1791083;79;21059;-83
2022/05/19 08:52:04;;;;;;;22.85;18.80;;;;;;;16.64;50.35;101090.16;1807014;78;21441;-82
2022/05/19 08:54:33;;;;;;;2.30;2.10;;;;;;;16.97;49.90;101080.08;1774095;79;21524;-82
2022/05/19 08:57:23;;;;;;;3.02;1.60;;;;;;;17.24;51.89;101083.69;1794272;79;22480;-82
2022/05/19 09:00:17;;;;;;;2.10;1.90;;;;;;;17.43;53.22;101074.84;1777869;79;21103;-85
2022/05/19 09:02:59;;;;;;;3.15;1.52;;;;;;;17.57;50.65;101078.77;1795575;79;21506;-85
2022/05/19 09:05:52;;;;;;;1.50;1.40;;;;;;;17.77;46.68;101075.48;1782958;79;21090;-90
2022/05/19 09:08:50;;;;;;;1.45;1.35;;;;;;;18.04;51.66;101068.97;1791261;79;21519;-88
2022/05/19 09:11:23;;;;;;;2.85;1.50;;;;;;;18.12;46.59;101072.98;1769795;80;21052;-91
2022/05/19 09:14:22;;;;;;;1.87;1.50;;;;;;;18.22;51.86;101073.72;1770719;80;21199;-91
2022/05/19 09:16:55;;;;;;;3.60;1.85;;;;;;;18.37;47.32;101072.64;1785535;79;21025;-88
2022/05/19 09:19:38;;;;;;;1.87;1.50;;;;;;;18.23;49.32;101068.76;1790740;78;20989;-91
2022/05/19 09:22:20;;;;;;;3.98;1.50;;;;;;;17.90;44.83;101072.47;1778498;79;21340;-89
2022/05/19 09:24:51;;;;;;;3.12;1.47;;;;;;;17.50;45.93;101073.26;1780718;79;21071;-90
2022/05/19 09:27:20;;;;;;;4.83;1.87;;;;;;;17.28;47.69;101079.77;1777032;80;21223;-90
2022/05/19 09:29:52;;;;;;;2.83;1.90;;;;;;;17.17;48.61;101072.91;1770014;80;21530;-88
2022/05/19 09:32:37;;;;;;;1.65;1.35;;;;;;;17.38;50.38;101083.68;1788463;79;21607;-88
2022/05/19 09:35:13;;;;;;;2.00;1.52;;;;;;;17.85;54.21;101068.13;1775115;80;21067;-88
2022/05/19 09:37:49;;;;;;;2.45;1.50;;;;;;;18.21;47.60;101064.16;1791870;79;21071;-92
2022/05/19 09:40:26;;;;;;;1.75;1.60;;;;;;;18.07;46.96;101071.28;1716376;79;21258;-90
2022/05/19 09:42:59;;;;;;;1.95;1.50;;;;;;;17.73;47.00;101074.12;1718086;81;21707;-90
2022/05/19 09:45:29;;;;;;;1.90;1.67;;;;;;;17.52;47.81;101080.19;1773647;78;21498;-90
2022/05/19 09:48:07;;;;;;;2.08;1.92;;;;;;;17.49;51.21;101073.42;1781821;77;21049;-93
2022/05/19 09:50:48;;;;;;;1.62;1.50;;;;;;;17.47;47.52;101084.58;1786618;78;21115;-90
2022/05/19 09:53:28;;;;;;;3.52;1.47;;;;;;;17.37;45.96;101079.39;1777718;78;21156;-89
2022/05/19 09:56:00;;;;;;;1.55;1.37;;;;;;;17.24;48.18;101078.42;1776832;79;21122;-90
2022/05/19 09:58:32;;;;;;;1.50;1.40;;;;;;;17.14;50.49;101083.75;1778802;79;21079;-91
2022/05/19 10:01:10;;;;;;;2.65;1.40;;;;;;;17.02;48.82;101086.22;1793800;79;21072;-91
2022/05/19 10:03:48;;;;;;;2.45;1.75;;;;;;;16.94;50.71;101083.03;1771780;80;21184;-89
2022/05/19 10:06:22;;;;;;;1.67;1.52;;;;;;;16.88;49.85;101088.34;1790929;79;22282;-89
2022/05/19 10:09:00;;;;;;;3.27;1.70;;;;;;;16.88;50.21;101090.13;1792307;79;21024;-91
2022/05/19 10:11:30;;;;;;;2.75;1.77;;;;;;;16.90;51.51;101083.43;1795003;79;21039;-91
2022/05/19 10:14:08;;;;;;;3.15;1.60;;;;;;;16.97;49.36;101093.73;1780333;79;21063;-89
2022/05/19 10:17:06;;;;;;;2.15;1.98;;;;;;;17.25;51.07;101081.41;1795117;79;21525;-90
2022/05/19 10:20:11;;;;;;;3.15;1.82;;;;;;;17.48;47.48;101081.78;1760177;79;22243;-91
2022/05/19 10:23:16;;;;;;;2.95;1.52;;;;;;;17.43;50.76;101074.84;1782690;79;21036;-88
2022/05/19 10:26:09;;;;;;;1.82;1.50;;;;;;;17.21;51.09;101080.53;1784201;79;20994;-82
2022/05/19 10:32:18;;;;;;;4.00;2.00;;;;;;;16.77;56.86;101088.52;1788884;79;21503;-90
2022/05/19 10:35:07;;;;;;;2.30;1.98;;;;;;;16.53;61.83;101085.08;1796715;78;21817;-89
2022/05/19 10:38:04;;;;;;;7.05;2.58;;;;;;;16.35;67.47;101092.38;1774119;80;21024;-90
2022/05/19 10:40:58;;;;;;;5.35;2.25;;;;;;;16.23;66.72;101097.44;1771901;79;21048;-88
2022/05/19 10:43:56;;;;;;;3.60;1.98;;;;;;;16.13;72.26;101100.59;1775984;80;21092;-89
2022/05/19 10:46:30;;;;;;;3.87;2.10;;;;;;;16.05;67.12;101106.52;1793581;79;21100;-90
2022/05/19 10:49:32;;;;;;;3.30;2.10;;;;;;;16.04;69.05;101103.08;1779012;79;21363;-88
2022/05/19 10:52:42;;;;;;;2.58;2.27;;;;;;;16.09;62.51;101106.60;1774850;79;21047;-89
2022/05/19 10:55:45;;;;;;;3.05;2.02;;;;;;;16.19;65.98;101096.89;1776901;79;21072;-91
2022/05/19 10:58:20;;;;;;;2.45;1.90;;;;;;;16.31;65.20;101094.94;1793350;78;21077;-89
2022/05/19 11:01:08;;;;;;;3.85;1.92;;;;;;;16.42;67.16;101097.91;1792897;79;21040;-89
2022/05/19 11:03:54;;;;;;;2.00;1.80;;;;;;;16.53;67.86;101100.86;1796296;79;21231;-89
2022/05/19 11:06:45;;;;;;;2.35;2.00;;;;;;;16.61;61.98;101097.50;1794318;79;21004;-89
2022/05/19 11:09:21;;;;;;;3.45;2.10;;;;;;;16.66;61.96;101101.86;1791935;79;21000;-89
2022/05/19 11:12:07;;;;;;;2.40;1.87;;;;;;;16.69;63.56;101110.29;1711106;80;21517;-91
2022/05/19 11:15:19;;;;;;;3.15;1.80;;;;;;;16.69;60.79;101097.14;1803837;78;21522;-90
2022/05/19 11:18:17;;;;;;;1.90;1.80;;;;;;;16.70;62.35;101094.02;1770716;80;21305;-91
2022/05/19 11:21:03;;;;;;;3.00;2.25;;;;;;;16.69;63.77;101097.61;1779401;79;21103;-87
2022/05/19 11:24:22;;;;;;;2.85;1.87;;;;;;;16.74;63.58;101099.81;1773620;79;21049;-86
2022/05/19 11:27:10;;;;;;;2.42;1.70;;;;;;;16.78;61.92;101088.86;1771756;80;21368;-84
2022/05/19 11:29:47;;;;;;;2.95;1.80;;;;;;;16.88;60.21;101087.50;1769447;81;21002;-86
2022/05/19 11:32:37;;;;;;;2.05;1.77;;;;;;;16.99;60.85;101088.67;1743079;81;21185;-85
2022/05/19 11:35:27;;;;;;;2.08;1.65;;;;;;;17.08;62.96;101079.05;1772813;80;20933;-85
2022/05/19 11:38:23;;;;;;;1.93;1.83;;;;;;;17.19;68.76;101078.87;1795526;79;21027;-86
2022/05/19 11:41:10;;;;;;;1.98;1.85;;;;;;;17.26;60.98;101081.75;1786378;79;21048;-92
2022/05/19 11:43:58;;;;;;;2.98;2.15;;;;;;;17.20;58.91;101075.73;1800118;79;21453;-90
2022/05/19 11:46:40;;;;;;;4.60;1.77;;;;;;;17.15;61.16;101089.83;1796528;79;21238;-88
2022/05/19 11:55:45;;;;;;;2.08;1.80;;;;;;;17.24;56.09;101074.95;1803379;78;21015;-89
2022/05/19 11:58:20;;;;;;;3.47;1.60;;;;;;;17.33;56.53;101074.06;1794309;79;21709;-86
2022/05/19 12:00:58;;;;;;;2.05;1.47;;;;;;;17.35;56.46;101066.35;1783680;79;21102;-87
2022/05/19 12:03:44;;;;;;;3.40;1.50;;;;;;;17.39;55.35;101068.70;1791856;79;21068;-85
2022/05/19 12:06:17;;;;;;;2.08;1.75;;;;;;;17.44;52.27;101065.13;1793838;79;21096;-88
2022/05/19 12:09:06;;;;;;;3.30;1.70;;;;;;;17.50;57.01;101064.05;1770602;79;20987;-87